Skip to main content.
 TIME   TEMPERATURE   WINDSPEED   DIRECTION   HUMIDITY   BAROMETER   RAINFALL 
15:05 32.0°C (89.6°F) 9.3 kmh (5.8 mph) NNE 46% 1015.9hPa (30.00 inHg) 0.0mm (0.00 in.)
14:05 31.0°C (87.8 °F) 11.1 kmh (6.9 mph) N 48% 1016.9hPa (30.03 inHg) 0.0mm (0.00 in.)
13:05 31.0°C (87.8 °F) 13.0 kmh (8.1 mph) E 48% 1016.9hPa (30.03 inHg) 0.0mm (0.00 in.)
12:05 31.0°C (87.8 °F) 11.1 kmh (6.9 mph) NNE 52% 1016.9hPa (30.03 inHg) 0.0mm (0.00 in.)
11:05 30.0°C (86.0 °F) 14.8 kmh (9.2 mph) NNE 51% 1016.9hPa (30.03 inHg) 0.0mm (0.00 in.)
10:00 29.0°C (84.2 °F) 9.3 kmh (5.8 mph) N 54% 1016.9hPa (30.03 inHg) 0.0mm (0.00 in.)
9:00 28.0°C (82.4 °F) 7.4 kmh (4.6 mph) NW 61% 1016.9hPa (30.03 inHg) 0.0mm (0.00 in.)
8:00 24.0°C (75.2 °F) 7.4 kmh (4.6 mph) NW 88% 1016.9hPa (30.03 inHg) 0.0mm (0.00 in.)
7:00 24.0°C (75.2 °F) 7.4 kmh (4.6 mph) WNW 83% 1016.9hPa (30.03 inHg) 0.0mm (0.00 in.)
6:00 24.0°C (75.2 °F) 5.6 kmh (3.5 mph) W 88% 1015.9hPa (30.00 inHg) 0.0mm (0.00 in.)
5:00 24.0°C (75.2 °F) 5.6 kmh (3.5 mph) W 83% 1015.9hPa (30.00 inHg) 0.0mm (0.00 in.)
4:00 25.0°C (77.0 °F) 5.6 kmh (3.5 mph) NNW 78% 1015.9hPa (30.00 inHg) 0.0mm (0.00 in.)
3:00 25.0°C (77.0 °F) 5.6 kmh (3.5 mph) NW 78% 1016.9hPa (30.03 inHg) 0.0mm (0.00 in.)
2:00 25.0°C (77.0 °F) 7.4 kmh (4.6 mph) N 78% 1016.9hPa (30.03 inHg) 0.0mm (0.00 in.)
1:00 25.0°C (77.0 °F) 7.4 kmh (4.6 mph) NNW 78% 1016.9hPa (30.03 inHg) 0.0mm (0.00 in.)
0:00 25.0°C (77.0 °F) 7.4 kmh (4.6 mph) NNW 73% 1016.9hPa (30.03 inHg) 0.0mm (0.00 in.)
23:00 26.0°C (78.8 °F) 9.3 kmh (5.8 mph) NNW 73% 1016.9hPa (30.03 inHg) 0.0mm (0.00 in.)
22:00 27.0°C (80.6 °F) 13.0 kmh (8.1 mph) N 69% 1016.9hPa (30.03 inHg) 0.0mm (0.00 in.)
21:00 27.0°C (80.6 °F) 14.8 kmh (9.2 mph) N 61% 1016.9hPa (30.03 inHg) 0.0mm (0.00 in.)
20:00 27.0°C (80.6 °F) 16.7 kmh (10.4 mph) N 74% 1016.9hPa (30.03 inHg) 0.0mm (0.00 in.)
19:00 29.0°C (84.2 °F) 14.8 kmh (9.2 mph) N 65% 1016.9hPa (30.03 inHg) 0.0mm (0.00 in.)
18:00 30.0°C (86.0 °F) 14.8 kmh (9.2 mph) N 62% 1016.9hPa (30.03 inHg) 0.0mm (0.00 in.)
17:00 30.0°C (86.0 °F) 16.7 kmh (10.4 mph) NNE 62% 1016.9hPa (30.03 inHg) 0.0mm (0.00 in.)
16:00 31.0°C (87.8 °F) 5.6 kmh (3.5 mph) NNE 52% 1016.9hPa (30.03 inHg) 0.0mm (0.00 in.)